createdAt,value
2024-05-09T00:00:30.549Z,9.56
2024-05-09T00:01:23.996Z,9.54
2024-05-09T00:02:24.313Z,9.65
2024-05-09T00:03:23.965Z,9.51
2024-05-09T00:04:23.878Z,9.54
2024-05-09T00:05:23.921Z,9.61
2024-05-09T00:06:23.790Z,9.54
2024-05-09T00:07:24.034Z,9.58
2024-05-09T00:08:23.762Z,9.64
2024-05-09T00:09:23.697Z,9.64
2024-05-09T00:10:32.637Z,9.64
2024-05-09T00:11:23.837Z,9.77
2024-05-09T00:12:29.279Z,9.82
2024-05-09T00:13:23.852Z,9.91
2024-05-09T00:14:23.590Z,9.94
2024-05-09T00:15:23.494Z,10.04
2024-05-09T00:16:23.458Z,10.17
2024-05-09T00:17:23.582Z,10.19
2024-05-09T00:18:23.815Z,10.19
2024-05-09T00:19:23.489Z,10.26
2024-05-09T00:20:28.588Z,10.33
2024-05-09T00:21:23.291Z,10.34
2024-05-09T00:22:23.247Z,10.30
2024-05-09T00:23:23.525Z,10.31
2024-05-09T00:24:23.182Z,10.34
2024-05-09T00:25:23.145Z,10.33
2024-05-09T00:26:23.209Z,10.35
2024-05-09T00:27:23.348Z,10.49
2024-05-09T00:28:23.048Z,10.48
2024-05-09T00:29:23.058Z,10.56
2024-05-09T00:30:31.618Z,10.57
2024-05-09T00:31:22.955Z,10.60
2024-05-09T00:32:23.354Z,10.59
2024-05-09T00:33:23.182Z,10.59
2024-05-09T00:34:22.917Z,10.63
2024-05-09T00:35:23.102Z,10.64
2024-05-09T00:36:22.786Z,10.67
2024-05-09T00:37:23.034Z,10.64
2024-05-09T00:38:22.790Z,10.64
2024-05-09T00:39:22.679Z,10.71
2024-05-09T00:40:30.972Z,10.74
2024-05-09T00:41:22.639Z,10.75
2024-05-09T00:42:22.848Z,10.71
2024-05-09T00:43:22.545Z,10.75
2024-05-09T00:44:22.555Z,10.76
2024-05-09T00:45:22.479Z,10.81
2024-05-09T00:46:22.449Z,10.78
2024-05-09T00:47:22.948Z,10.76
2024-05-09T00:48:22.553Z,10.84
2024-05-09T00:49:22.447Z,10.87
2024-05-09T00:50:29.461Z,10.82
2024-05-09T00:51:28.757Z,10.87
2024-05-09T00:52:22.520Z,10.90
2024-05-09T00:53:22.227Z,10.86
2024-05-09T00:54:22.182Z,10.89
2024-05-09T00:55:22.143Z,10.79
2024-05-09T00:56:22.183Z,10.90
2024-05-09T00:57:22.349Z,10.84
2024-05-09T00:58:22.043Z,10.89
2024-05-09T00:59:22.063Z,10.79
2024-05-09T01:00:27.413Z,10.76
2024-05-09T01:01:22.004Z,10.87
2024-05-09T01:02:22.274Z,10.86
2024-05-09T01:03:22.645Z,10.87
2024-05-09T01:04:22.796Z,10.87
2024-05-09T01:05:21.833Z,10.89
2024-05-09T01:06:21.782Z,10.86
2024-05-09T01:07:22.025Z,10.86
2024-05-09T01:08:21.812Z,10.92
2024-05-09T01:09:21.689Z,10.81
2024-05-09T01:10:27.961Z,10.87
2024-05-09T01:11:21.663Z,10.89
2024-05-09T01:12:21.964Z,10.75
2024-05-09T01:13:21.546Z,10.90
2024-05-09T01:14:21.589Z,10.86
2024-05-09T01:15:21.514Z,10.75
2024-05-09T01:16:21.449Z,10.87
2024-05-09T01:17:21.814Z,10.89
2024-05-09T01:18:21.525Z,10.86
2024-05-09T01:19:21.565Z,10.90
2024-05-09T01:20:31.759Z,10.87
2024-05-09T01:21:21.324Z,10.86
2024-05-09T01:22:21.530Z,10.93
2024-05-09T01:23:21.235Z,10.86
2024-05-09T01:24:21.196Z,10.89
2024-05-09T01:25:21.141Z,10.86
2024-05-09T01:26:21.246Z,10.87
2024-05-09T01:27:21.177Z,10.82
2024-05-09T01:28:21.068Z,10.90
2024-05-09T01:29:21.081Z,10.89
2024-05-09T01:30:24.613Z,10.99
2024-05-09T01:31:20.955Z,10.94
2024-05-09T01:32:21.460Z,10.99
2024-05-09T01:33:21.081Z,10.89
2024-05-09T01:34:20.973Z,10.94
2024-05-09T01:35:20.915Z,10.94
2024-05-09T01:36:20.777Z,10.94
2024-05-09T01:37:21.029Z,10.97
2024-05-09T01:38:20.745Z,10.92
2024-05-09T01:39:20.683Z,10.94
2024-05-09T01:40:28.553Z,10.90
2024-05-09T01:41:20.652Z,10.79
2024-05-09T01:42:20.871Z,10.87
2024-05-09T01:43:20.547Z,10.82
2024-05-09T01:44:20.569Z,10.82
2024-05-09T01:45:20.476Z,10.84
2024-05-09T01:46:20.450Z,10.86
2024-05-09T01:47:20.701Z,10.86
2024-05-09T01:48:20.506Z,10.87
2024-05-09T01:49:20.451Z,10.76
2024-05-09T01:50:33.019Z,10.76
2024-05-09T01:51:20.299Z,10.76
2024-05-09T01:52:20.250Z,10.78
2024-05-09T01:53:20.253Z,10.72
2024-05-09T01:54:20.186Z,10.68
2024-05-09T01:55:20.145Z,10.63
2024-05-09T01:56:20.143Z,10.68
2024-05-09T01:57:20.078Z,10.63
2024-05-09T01:58:20.324Z,10.69
2024-05-09T01:59:20.822Z,10.60
2024-05-09T02:00:30.208Z,10.69
2024-05-09T02:01:20.871Z,10.64
2024-05-09T02:02:20.071Z,10.56
2024-05-09T02:03:20.285Z,10.54
2024-05-09T02:04:20.128Z,10.49
2024-05-09T02:05:19.880Z,10.44
2024-05-09T02:06:19.784Z,10.41
2024-05-09T02:07:19.748Z,10.35
2024-05-09T02:08:20.180Z,10.28
2024-05-09T02:09:19.679Z,10.22
2024-05-09T02:10:25.972Z,10.13
2024-05-09T02:11:19.658Z,10.13
2024-05-09T02:12:19.698Z,10.19
2024-05-09T02:13:19.828Z,10.09
2024-05-09T02:14:19.555Z,9.97
2024-05-09T02:15:19.508Z,9.98
2024-05-09T02:16:19.439Z,9.91
2024-05-09T02:17:20.447Z,9.94
2024-05-09T02:18:20.435Z,9.87
2024-05-09T02:19:19.511Z,9.83
2024-05-09T02:20:29.944Z,9.76
2024-05-09T02:21:19.394Z,9.61
2024-05-09T02:22:19.237Z,9.62
2024-05-09T02:23:19.502Z,9.55
2024-05-09T02:24:19.167Z,9.37
2024-05-09T02:25:19.131Z,9.40
2024-05-09T02:26:19.834Z,9.37
2024-05-09T02:27:19.092Z,9.40
2024-05-09T02:28:19.316Z,9.32
2024-05-09T02:29:19.147Z,9.32
2024-05-09T02:30:26.316Z,9.31
2024-05-09T02:31:18.936Z,9.21
2024-05-09T02:32:19.112Z,9.23
2024-05-09T02:33:19.269Z,9.18
2024-05-09T02:34:18.898Z,9.18
2024-05-09T02:35:18.842Z,9.16
2024-05-09T02:36:18.765Z,9.10
2024-05-09T02:37:18.735Z,8.99
2024-05-09T02:38:19.051Z,9.04
2024-05-09T02:39:18.662Z,8.94
2024-05-09T02:40:25.434Z,8.89
2024-05-09T02:41:18.651Z,8.82
2024-05-09T02:42:18.559Z,8.85
2024-05-09T02:43:18.799Z,8.89
2024-05-09T02:44:18.573Z,8.74
2024-05-09T02:45:18.526Z,8.70
2024-05-09T02:46:19.311Z,8.69
2024-05-09T02:47:18.514Z,8.60
2024-05-09T02:48:18.791Z,8.56
2024-05-09T02:49:18.515Z,8.45
2024-05-09T02:50:26.569Z,8.45
2024-05-09T02:51:18.299Z,8.30
2024-05-09T02:52:18.217Z,8.24
2024-05-09T02:53:18.510Z,8.36
2024-05-09T02:54:18.146Z,8.19
2024-05-09T02:55:18.127Z,8.27
2024-05-09T02:56:18.121Z,8.13
2024-05-09T02:57:18.060Z,8.10
2024-05-09T02:58:18.280Z,8.10
2024-05-09T02:59:18.052Z,8.10
2024-05-09T03:00:22.841Z,8.05
2024-05-09T03:01:17.963Z,8.01
2024-05-09T03:02:18.009Z,8.05
2024-05-09T03:03:18.355Z,7.82
2024-05-09T03:04:17.859Z,7.83
2024-05-09T03:05:17.793Z,7.87
2024-05-09T03:06:17.737Z,7.76
2024-05-09T03:07:20.072Z,7.76
2024-05-09T03:08:18.208Z,7.72
2024-05-09T03:09:17.627Z,7.80
2024-05-09T03:10:22.439Z,7.79
2024-05-09T03:11:17.725Z,7.79
2024-05-09T03:12:17.611Z,7.72
2024-05-09T03:13:17.770Z,7.73
2024-05-09T03:14:17.501Z,7.77
2024-05-09T03:15:18.362Z,7.85
2024-05-09T03:16:17.396Z,7.87
2024-05-09T03:17:17.482Z,7.90
2024-05-09T03:18:17.628Z,7.93
2024-05-09T03:19:17.468Z,7.82
2024-05-09T03:20:23.630Z,7.91
2024-05-09T03:21:17.249Z,7.88
2024-05-09T03:22:17.188Z,7.82
2024-05-09T03:23:17.456Z,7.88
2024-05-09T03:24:18.812Z,7.80
2024-05-09T03:25:17.083Z,7.94
2024-05-09T03:26:17.892Z,8.00
2024-05-09T03:27:17.013Z,8.05
2024-05-09T03:28:16.969Z,7.97
2024-05-09T03:29:18.357Z,7.95
2024-05-09T03:30:29.168Z,8.03
2024-05-09T03:31:16.873Z,8.05
2024-05-09T03:32:16.989Z,8.10
2024-05-09T03:33:17.664Z,8.18
2024-05-09T03:34:17.075Z,8.12
2024-05-09T03:35:16.838Z,8.08
2024-05-09T03:36:16.716Z,8.18
2024-05-09T03:37:16.673Z,8.19
2024-05-09T03:38:16.912Z,8.19
2024-05-09T03:39:16.862Z,8.20
2024-05-09T03:40:23.365Z,8.24
2024-05-09T03:41:16.558Z,8.24
2024-05-09T03:42:16.511Z,8.18
2024-05-09T03:43:16.471Z,8.16
2024-05-09T03:44:16.740Z,8.13
2024-05-09T03:45:16.418Z,8.18
2024-05-09T03:46:16.356Z,8.18
2024-05-09T03:47:16.480Z,8.15
2024-05-09T03:48:16.574Z,8.18
2024-05-09T03:49:16.675Z,8.15
2024-05-09T03:50:22.627Z,8.12
2024-05-09T03:51:16.222Z,8.12
2024-05-09T03:52:16.188Z,8.19
2024-05-09T03:53:16.318Z,8.38
2024-05-09T03:54:16.374Z,8.37
2024-05-09T03:55:16.039Z,8.33
2024-05-09T03:56:16.025Z,8.34
2024-05-09T03:57:15.998Z,8.31
2024-05-09T03:58:15.946Z,8.19
2024-05-09T03:59:16.216Z,8.18
2024-05-09T04:00:22.124Z,8.23
2024-05-09T04:01:15.879Z,8.18
2024-05-09T04:02:15.907Z,8.20
2024-05-09T04:03:16.117Z,8.23
2024-05-09T04:04:15.764Z,8.36
2024-05-09T04:05:16.077Z,8.34
2024-05-09T04:06:15.659Z,8.66
2024-05-09T04:07:15.625Z,8.94
2024-05-09T04:08:15.957Z,9.02
2024-05-09T04:09:15.564Z,9.13
2024-05-09T04:10:24.030Z,9.37
2024-05-09T04:11:15.577Z,9.61
2024-05-09T04:12:15.539Z,9.87
2024-05-09T04:13:15.437Z,9.99
2024-05-09T04:14:15.699Z,10.25
2024-05-09T04:15:15.354Z,10.16
2024-05-09T04:16:15.314Z,9.92
2024-05-09T04:17:15.411Z,9.91
2024-05-09T04:18:15.289Z,9.58
2024-05-09T04:19:15.686Z,9.43
2024-05-09T04:20:24.602Z,9.41
2024-05-09T04:21:15.190Z,9.31
2024-05-09T04:22:15.107Z,9.18
2024-05-09T04:23:15.307Z,9.14
2024-05-09T04:24:15.318Z,9.11
2024-05-09T04:25:15.009Z,8.99
2024-05-09T04:26:14.998Z,9.03
2024-05-09T04:27:14.948Z,9.13
2024-05-09T04:28:14.958Z,9.16
2024-05-09T04:29:15.220Z,9.25
2024-05-09T04:30:21.802Z,9.26
2024-05-09T04:31:14.811Z,9.25
2024-05-09T04:32:14.808Z,9.16
2024-05-09T04:33:15.376Z,9.25
2024-05-09T04:34:15.103Z,9.25
2024-05-09T04:35:14.755Z,9.18
2024-05-09T04:36:14.634Z,9.16
2024-05-09T04:37:14.610Z,9.21
2024-05-09T04:38:15.674Z,9.16
2024-05-09T04:39:14.527Z,9.19
2024-05-09T04:40:24.185Z,9.26
2024-05-09T04:41:14.511Z,9.18
2024-05-09T04:42:14.433Z,9.16
2024-05-09T04:43:14.695Z,9.22
2024-05-09T04:44:14.391Z,9.25
2024-05-09T04:45:14.325Z,9.26
2024-05-09T04:46:14.297Z,9.28
2024-05-09T04:47:14.363Z,9.29
2024-05-09T04:48:14.805Z,9.28
2024-05-09T04:49:14.435Z,9.25
2024-05-09T04:50:21.179Z,9.28
2024-05-09T04:51:14.200Z,9.28
2024-05-09T04:52:14.122Z,9.28
2024-05-09T04:53:14.364Z,9.43
2024-05-09T04:54:25.988Z,9.46
2024-05-09T04:55:13.991Z,9.43
2024-05-09T04:56:14.058Z,9.40
2024-05-09T04:57:13.918Z,9.46
2024-05-09T04:58:14.159Z,9.46
2024-05-09T04:59:13.877Z,9.44
2024-05-09T05:00:15.027Z,9.55
2024-05-09T05:01:14.383Z,9.55
2024-05-09T05:02:13.782Z,9.76
2024-05-09T05:03:15.872Z,9.86
2024-05-09T05:04:13.726Z,10.15
2024-05-09T05:05:13.777Z,10.25
2024-05-09T05:06:13.611Z,10.71
2024-05-09T05:07:13.580Z,10.87
2024-05-09T05:08:14.271Z,11.08
2024-05-09T05:09:13.608Z,11.23
2024-05-09T05:10:21.399Z,11.11
2024-05-09T05:11:13.788Z,10.90
2024-05-09T05:12:13.505Z,10.92
2024-05-09T05:13:13.677Z,10.92
2024-05-09T05:14:13.403Z,11.02
2024-05-09T05:15:13.329Z,11.30
2024-05-09T05:16:13.355Z,11.73
2024-05-09T05:17:13.300Z,12.04
2024-05-09T05:18:13.618Z,12.13
2024-05-09T05:19:16.130Z,12.06
2024-05-09T05:20:17.834Z,12.04
2024-05-09T05:21:13.305Z,11.88
2024-05-09T05:22:13.105Z,11.68
2024-05-09T05:23:13.693Z,11.45
2024-05-09T05:24:13.015Z,11.26
2024-05-09T05:25:20.017Z,11.10
2024-05-09T05:26:12.950Z,10.99
2024-05-09T05:27:13.304Z,10.89
2024-05-09T05:28:14.409Z,10.87
2024-05-09T05:29:12.889Z,10.87
2024-05-09T05:30:21.026Z,10.71
2024-05-09T05:31:12.789Z,10.67
2024-05-09T05:32:13.147Z,10.61
2024-05-09T05:33:13.076Z,10.59
2024-05-09T05:34:12.715Z,10.57
2024-05-09T05:35:12.679Z,10.57
2024-05-09T05:36:12.622Z,10.60
2024-05-09T05:37:12.606Z,10.69
2024-05-09T05:38:12.581Z,10.64
2024-05-09T05:39:12.526Z,10.60
2024-05-09T05:40:20.639Z,10.49
2024-05-09T05:41:12.581Z,10.63
2024-05-09T05:42:12.707Z,10.69
2024-05-09T05:43:12.421Z,10.68
2024-05-09T05:44:12.370Z,10.69
2024-05-09T05:45:12.329Z,10.67
2024-05-09T05:46:12.284Z,10.63
2024-05-09T05:47:12.668Z,10.68
2024-05-09T05:48:12.324Z,10.76
2024-05-09T05:49:12.415Z,10.84
2024-05-09T05:50:23.619Z,10.86
2024-05-09T05:51:12.572Z,10.82
2024-05-09T05:52:12.087Z,10.86
2024-05-09T05:53:12.126Z,10.89
2024-05-09T05:54:12.017Z,10.87
2024-05-09T05:55:12.018Z,10.93
2024-05-09T05:56:12.269Z,10.94
2024-05-09T05:57:11.920Z,10.94
2024-05-09T05:58:12.042Z,11.05
2024-05-09T05:59:14.074Z,11.04
2024-05-09T06:00:18.057Z,11.11
2024-05-09T06:01:12.079Z,11.14
2024-05-09T06:02:11.825Z,11.11
2024-05-09T06:03:12.480Z,11.25
2024-05-09T06:04:11.838Z,11.11
2024-05-09T06:05:11.771Z,11.30
2024-05-09T06:06:11.943Z,11.26
2024-05-09T06:07:11.596Z,11.23
2024-05-09T06:08:11.741Z,11.30
2024-05-09T06:09:11.522Z,11.33
2024-05-09T06:10:17.671Z,11.47
2024-05-09T06:11:11.890Z,11.55
2024-05-09T06:12:11.592Z,11.54
2024-05-09T06:13:11.918Z,11.57
2024-05-09T06:14:11.377Z,11.60
2024-05-09T06:15:11.593Z,11.55
2024-05-09T06:16:11.286Z,11.65
2024-05-09T06:17:11.404Z,11.70
2024-05-09T06:18:12.461Z,11.75
2024-05-09T06:19:11.300Z,11.84
2024-05-09T06:20:20.182Z,11.81
2024-05-09T06:21:11.221Z,11.83
2024-05-09T06:22:11.917Z,11.84
2024-05-09T06:23:11.156Z,11.90
2024-05-09T06:24:11.028Z,11.94
2024-05-09T06:25:11.287Z,11.99
2024-05-09T06:26:11.002Z,12.04
2024-05-09T06:27:10.927Z,12.09
2024-05-09T06:28:10.897Z,12.09
2024-05-09T06:29:10.882Z,12.10
2024-05-09T06:30:21.158Z,12.15
2024-05-09T06:31:10.790Z,12.20
2024-05-09T06:32:10.855Z,12.17
2024-05-09T06:33:12.666Z,12.15
2024-05-09T06:34:10.741Z,12.28
2024-05-09T06:35:10.707Z,12.27
2024-05-09T06:36:10.640Z,12.25
2024-05-09T06:37:10.601Z,12.25
2024-05-09T06:38:11.072Z,12.27
2024-05-09T06:39:10.530Z,12.31
2024-05-09T06:40:12.537Z,12.45
2024-05-09T06:41:10.517Z,12.46
2024-05-09T06:42:10.432Z,12.58
2024-05-09T06:43:18.384Z,12.50
2024-05-09T06:44:10.396Z,12.72
2024-05-09T06:45:10.644Z,12.75
2024-05-09T06:46:10.304Z,12.68
2024-05-09T06:47:10.370Z,12.76
2024-05-09T06:48:10.704Z,12.93
2024-05-09T06:49:10.431Z,12.98
2024-05-09T06:50:19.626Z,13.03
2024-05-09T06:51:10.293Z,13.11
2024-05-09T06:52:10.104Z,13.23
2024-05-09T06:53:10.159Z,13.19
2024-05-09T06:54:10.038Z,13.27
2024-05-09T06:55:10.048Z,13.28
2024-05-09T06:56:10.060Z,13.31
2024-05-09T06:57:09.948Z,13.31
2024-05-09T06:58:09.998Z,13.47
2024-05-09T06:59:09.941Z,13.50
2024-05-09T07:00:15.518Z,13.53
2024-05-09T07:01:09.860Z,13.67
2024-05-09T07:02:09.842Z,13.63
2024-05-09T07:03:10.784Z,13.65
2024-05-09T07:04:09.924Z,13.65
2024-05-09T07:05:09.767Z,13.70
2024-05-09T07:06:09.776Z,13.72
2024-05-09T07:07:09.617Z,13.78
2024-05-09T07:08:09.743Z,13.77
2024-05-09T07:09:09.584Z,13.85
2024-05-09T07:10:14.971Z,13.93
2024-05-09T07:11:09.630Z,13.90
2024-05-09T07:12:09.554Z,13.89
2024-05-09T07:13:09.447Z,13.93
2024-05-09T07:14:09.450Z,14.04
2024-05-09T07:15:09.372Z,14.10
2024-05-09T07:16:09.330Z,14.15
2024-05-09T07:17:09.504Z,14.20
2024-05-09T07:18:09.878Z,14.14
2024-05-09T07:19:09.756Z,14.15
2024-05-09T07:20:13.972Z,14.15
2024-05-09T07:21:09.234Z,14.26
2024-05-09T07:22:09.141Z,14.28
2024-05-09T07:23:09.435Z,14.26
2024-05-09T07:24:09.092Z,14.33
2024-05-09T07:25:09.048Z,14.30
2024-05-09T07:26:09.044Z,14.30
2024-05-09T07:27:08.991Z,14.28
2024-05-09T07:28:09.684Z,14.43
2024-05-09T07:29:08.974Z,14.48
2024-05-09T07:30:11.529Z,14.53
2024-05-09T07:31:09.382Z,14.60
2024-05-09T07:32:09.589Z,14.59
2024-05-09T07:33:09.201Z,14.62
2024-05-09T07:34:08.848Z,14.63
2024-05-09T07:35:10.424Z,14.60
2024-05-09T07:36:08.820Z,14.58
2024-05-09T07:37:09.441Z,14.47
2024-05-09T07:38:08.752Z,14.53
2024-05-09T07:39:08.594Z,14.63
2024-05-09T07:40:11.974Z,14.63
2024-05-09T07:41:08.589Z,14.60
2024-05-09T07:42:08.779Z,14.58
2024-05-09T07:43:08.544Z,14.58
2024-05-09T07:44:08.477Z,14.62
2024-05-09T07:45:29.548Z,14.68
2024-05-09T07:47:13.765Z,14.72
2024-05-09T07:48:14.684Z,14.81
2024-05-09T07:53:22.146Z,14.99
2024-05-09T07:53:36.597Z,14.85
2024-05-09T07:54:08.581Z,14.92
2024-05-09T07:55:08.227Z,15.03
2024-05-09T07:56:09.375Z,15.06
2024-05-09T07:57:08.322Z,15.06
2024-05-09T07:58:08.075Z,15.17
2024-05-09T07:59:07.963Z,15.18
2024-05-09T08:00:08.283Z,15.21
2024-05-09T08:01:07.938Z,15.31
2024-05-09T08:02:08.384Z,15.29
2024-05-09T08:03:07.905Z,15.31
2024-05-09T08:04:07.952Z,15.27
2024-05-09T08:05:08.016Z,15.35
2024-05-09T08:06:07.745Z,15.33
2024-05-09T08:07:08.055Z,15.37
2024-05-09T08:08:07.682Z,15.36
2024-05-09T08:09:11.149Z,15.24
2024-05-09T08:10:10.672Z,15.24
2024-05-09T08:11:07.614Z,15.21
2024-05-09T08:12:07.817Z,15.21
2024-05-09T08:13:07.726Z,15.29
2024-05-09T08:14:07.495Z,15.31
2024-05-09T08:15:07.458Z,15.27
2024-05-09T08:16:07.470Z,15.33
2024-05-09T08:17:07.771Z,15.37
2024-05-09T08:18:07.584Z,15.33
2024-05-09T08:19:07.496Z,15.39
2024-05-09T08:20:07.666Z,15.39
2024-05-09T08:21:07.266Z,15.39
2024-05-09T08:22:07.606Z,15.47
2024-05-09T08:23:07.212Z,15.47
2024-05-09T08:24:07.168Z,15.42
2024-05-09T08:25:07.196Z,15.44
2024-05-09T08:26:07.099Z,15.54
2024-05-09T08:27:07.377Z,15.59
2024-05-09T08:28:07.108Z,15.68
2024-05-09T08:29:07.009Z,15.75
2024-05-09T08:30:10.271Z,15.76
2024-05-09T08:31:07.503Z,15.77
2024-05-09T08:32:07.232Z,15.79
2024-05-09T08:33:07.966Z,15.79
2024-05-09T08:34:07.079Z,15.76
2024-05-09T08:35:06.867Z,15.80
2024-05-09T08:36:06.786Z,15.80
2024-05-09T08:37:13.130Z,15.82
2024-05-09T08:38:07.145Z,15.82
2024-05-09T08:39:06.696Z,15.76
2024-05-09T08:40:11.017Z,15.79
2024-05-09T08:41:06.632Z,15.80
2024-05-09T08:42:06.889Z,15.83
2024-05-09T08:43:06.673Z,15.92
2024-05-09T08:44:06.550Z,15.84
2024-05-09T08:45:06.522Z,15.90
2024-05-09T08:46:06.508Z,16.00
2024-05-09T08:47:06.752Z,16.09
2024-05-09T08:48:06.616Z,16.09
2024-05-09T08:49:06.508Z,16.13
2024-05-09T08:50:08.645Z,16.13
2024-05-09T08:51:06.324Z,16.13
2024-05-09T08:52:06.687Z,16.20
2024-05-09T08:53:06.268Z,16.21
2024-05-09T08:54:06.228Z,16.16
2024-05-09T08:55:06.237Z,16.17
2024-05-09T08:56:06.201Z,16.26
2024-05-09T08:57:06.163Z,16.29
2024-05-09T08:58:06.300Z,16.33
2024-05-09T08:59:06.072Z,16.38
2024-05-09T09:00:10.015Z,16.35
2024-05-09T09:01:06.175Z,16.36
2024-05-09T09:02:06.082Z,16.42
2024-05-09T09:03:06.138Z,16.39
2024-05-09T09:04:06.146Z,16.32
2024-05-09T09:05:05.993Z,16.35
2024-05-09T09:06:05.868Z,16.50
2024-05-09T09:07:06.143Z,16.41
2024-05-09T09:08:05.794Z,16.41
2024-05-09T09:09:05.763Z,16.36
2024-05-09T09:10:08.585Z,16.46
2024-05-09T09:11:05.979Z,16.53
2024-05-09T09:12:07.259Z,16.53
2024-05-09T09:13:05.738Z,16.47
2024-05-09T09:14:05.617Z,16.39
2024-05-09T09:15:05.581Z,16.38
2024-05-09T09:16:06.509Z,16.49
2024-05-09T09:17:05.792Z,16.64
2024-05-09T09:18:07.338Z,16.64
2024-05-09T09:19:05.616Z,16.72
2024-05-09T09:20:06.975Z,16.81
2024-05-09T09:21:05.388Z,16.72
2024-05-09T09:22:05.958Z,16.75
2024-05-09T09:23:05.364Z,16.74
2024-05-09T09:24:06.982Z,16.72
2024-05-09T09:25:05.375Z,16.74
2024-05-09T09:26:06.482Z,16.86
2024-05-09T09:27:05.208Z,16.87
2024-05-09T09:28:05.263Z,16.96
2024-05-09T09:29:05.146Z,17.01
2024-05-09T09:30:08.856Z,16.97
2024-05-09T09:31:05.530Z,16.99
2024-05-09T09:32:05.059Z,16.97
2024-05-09T09:33:05.475Z,16.90
2024-05-09T09:34:05.102Z,17.04
2024-05-09T09:35:05.042Z,16.99
2024-05-09T09:36:06.831Z,17.09
2024-05-09T09:37:04.982Z,16.99
2024-05-09T09:38:04.873Z,16.99
2024-05-09T09:39:04.841Z,16.96
2024-05-09T09:40:06.895Z,17.05
2024-05-09T09:41:05.096Z,17.06
2024-05-09T09:42:04.757Z,17.09
2024-05-09T09:43:04.780Z,17.14
2024-05-09T09:44:04.686Z,17.12
2024-05-09T09:45:05.751Z,17.23
2024-05-09T09:46:06.327Z,17.31
2024-05-09T09:47:04.644Z,17.27
2024-05-09T09:48:04.663Z,17.26
2024-05-09T09:49:04.605Z,17.27
2024-05-09T09:51:04.752Z,17.33
2024-05-09T09:52:04.943Z,17.23
2024-05-09T09:53:04.435Z,17.16
2024-05-09T09:54:04.383Z,17.14
2024-05-09T09:55:04.415Z,17.04
2024-05-09T09:56:04.594Z,17.12
2024-05-09T09:57:04.294Z,17.05
2024-05-09T09:58:04.610Z,17.04
2024-05-09T09:59:04.236Z,17.14
2024-05-09T10:00:09.412Z,17.09
2024-05-09T10:01:04.555Z,17.08
2024-05-09T10:02:04.403Z,17.09
2024-05-09T10:03:04.145Z,17.08
2024-05-09T10:04:04.176Z,17.12
2024-05-09T10:05:04.170Z,17.09
2024-05-09T10:06:04.291Z,17.12
2024-05-09T10:07:04.043Z,17.20
2024-05-09T10:08:03.967Z,17.24
2024-05-09T10:09:03.927Z,17.24
2024-05-09T10:10:05.108Z,17.26
2024-05-09T10:11:04.456Z,17.39
2024-05-09T10:12:04.874Z,17.41
2024-05-09T10:13:03.890Z,17.49
2024-05-09T10:14:03.783Z,17.56
2024-05-09T10:15:03.751Z,17.51
2024-05-09T10:16:04.007Z,17.56
2024-05-09T10:17:03.735Z,17.39
2024-05-09T10:18:03.931Z,17.48
2024-05-09T10:19:03.710Z,17.31
2024-05-09T10:20:07.206Z,17.27
2024-05-09T10:21:03.837Z,17.24
2024-05-09T10:22:03.596Z,17.34
2024-05-09T10:23:03.532Z,17.30
2024-05-09T10:24:03.490Z,17.30
2024-05-09T10:25:04.956Z,17.34
2024-05-09T10:26:03.832Z,17.48
2024-05-09T10:27:03.391Z,17.51
2024-05-09T10:28:03.396Z,17.68
2024-05-09T10:29:03.356Z,17.51
2024-05-09T10:30:06.887Z,17.54
2024-05-09T10:31:03.618Z,17.57
2024-05-09T10:32:03.240Z,17.52
2024-05-09T10:33:03.368Z,17.60
2024-05-09T10:34:03.677Z,17.67
2024-05-09T10:35:03.278Z,17.63
2024-05-09T10:36:03.402Z,17.68
2024-05-09T10:37:04.761Z,17.64
2024-05-09T10:38:03.050Z,17.79
2024-05-09T10:39:03.029Z,17.80
2024-05-09T10:40:05.448Z,17.85
2024-05-09T10:41:03.227Z,17.90
2024-05-09T10:42:02.938Z,17.90
2024-05-09T10:43:05.816Z,17.98
2024-05-09T10:44:02.914Z,17.95
2024-05-09T10:45:02.862Z,18.07
2024-05-09T10:46:02.984Z,18.04
2024-05-09T10:47:03.387Z,18.00
2024-05-09T10:48:03.104Z,18.00
2024-05-09T10:49:06.323Z,17.87
2024-05-09T10:50:03.031Z,17.90
2024-05-09T10:51:02.657Z,17.89
2024-05-09T10:52:03.017Z,17.97
2024-05-09T10:53:02.604Z,17.89
2024-05-09T10:54:02.566Z,17.90
2024-05-09T10:55:05.478Z,17.89
2024-05-09T10:56:02.775Z,17.92
2024-05-09T10:57:02.483Z,17.89
2024-05-09T10:58:02.554Z,17.92
2024-05-09T10:59:02.418Z,18.00
2024-05-09T11:00:02.406Z,18.11
2024-05-09T11:01:06.397Z,18.07
2024-05-09T11:02:02.427Z,18.18
2024-05-09T11:03:02.318Z,18.18
2024-05-09T11:04:02.433Z,18.16
2024-05-09T11:05:02.373Z,18.11
2024-05-09T11:06:02.214Z,18.08
2024-05-09T11:07:05.287Z,18.13
2024-05-09T11:08:02.150Z,18.13
2024-05-09T11:09:02.139Z,18.20
2024-05-09T11:10:02.151Z,18.16
2024-05-09T11:11:02.344Z,18.22
2024-05-09T11:12:02.173Z,18.31
2024-05-09T11:13:02.053Z,18.33
2024-05-09T11:14:01.976Z,18.19
2024-05-09T11:15:01.936Z,18.31
2024-05-09T11:16:02.273Z,18.28
2024-05-09T11:17:01.974Z,18.33
2024-05-09T11:18:01.940Z,18.28
2024-05-09T11:19:02.125Z,18.29
2024-05-09T11:20:01.893Z,18.35
2024-05-09T11:21:02.054Z,18.33
2024-05-09T11:22:01.807Z,18.35
2024-05-09T11:23:01.699Z,18.33
2024-05-09T11:24:01.668Z,18.31
2024-05-09T11:25:01.692Z,18.28
2024-05-09T11:26:01.887Z,18.37
2024-05-09T11:27:01.612Z,18.40
2024-05-09T11:28:01.638Z,18.35
2024-05-09T11:29:01.539Z,18.29
2024-05-09T11:30:01.518Z,18.23
2024-05-09T11:31:01.763Z,18.34
2024-05-09T11:32:01.475Z,18.34
2024-05-09T11:33:01.555Z,18.44
2024-05-09T11:34:01.397Z,18.49
2024-05-09T11:35:01.368Z,18.50
2024-05-09T11:36:01.587Z,18.56
2024-05-09T11:37:01.329Z,18.66
2024-05-09T11:38:01.272Z,18.62
2024-05-09T11:39:01.238Z,18.62
2024-05-09T11:40:01.322Z,18.56
2024-05-09T11:41:01.453Z,18.58
2024-05-09T11:42:01.158Z,18.44
2024-05-09T11:43:01.188Z,18.49
2024-05-09T11:44:01.097Z,18.49
2024-05-09T11:45:01.065Z,18.52
2024-05-09T11:46:01.403Z,18.50
2024-05-09T11:47:01.006Z,18.52
2024-05-09T11:48:01.051Z,18.60
2024-05-09T11:49:01.106Z,18.60
2024-05-09T11:50:01.040Z,18.68
2024-05-09T11:51:01.148Z,18.66
2024-05-09T11:52:00.940Z,18.74
2024-05-09T11:53:00.826Z,18.95
2024-05-09T11:54:00.777Z,18.86
2024-05-09T11:55:00.876Z,18.92
2024-05-09T11:56:00.724Z,18.90
2024-05-09T11:57:00.962Z,18.88
2024-05-09T11:58:00.713Z,18.92
2024-05-09T11:59:00.655Z,18.90
2024-05-09T12:00:00.605Z,18.84
2024-05-09T12:01:00.924Z,18.77
2024-05-09T12:02:00.639Z,18.66
2024-05-09T12:03:00.584Z,18.71
2024-05-09T12:04:00.966Z,18.70
2024-05-09T12:05:00.553Z,18.68
2024-05-09T12:06:00.667Z,18.70
2024-05-09T12:07:00.759Z,18.68
2024-05-09T12:08:00.371Z,18.70
2024-05-09T12:09:00.357Z,18.71
2024-05-09T12:10:00.397Z,18.55
2024-05-09T12:11:00.955Z,18.65
2024-05-09T12:12:00.252Z,18.71
2024-05-09T12:13:00.269Z,18.74
2024-05-09T12:14:00.196Z,18.90
2024-05-09T12:15:00.188Z,18.86
2024-05-09T12:16:00.463Z,18.96
2024-05-09T12:17:00.159Z,18.84
2024-05-09T12:18:02.908Z,19.00
2024-05-09T12:19:00.110Z,19.04
2024-05-09T12:20:00.032Z,19.12
2024-05-09T12:21:00.281Z,19.21
2024-05-09T12:21:59.993Z,18.98
2024-05-09T12:22:59.926Z,18.96
2024-05-09T12:23:59.908Z,18.86
2024-05-09T12:24:59.896Z,18.96
2024-05-09T12:26:00.212Z,18.88
2024-05-09T12:26:59.807Z,18.83
2024-05-09T12:28:00.209Z,18.89
2024-05-09T12:28:59.743Z,18.99
2024-05-09T12:29:59.731Z,19.09
2024-05-09T12:30:59.979Z,19.15
2024-05-09T12:31:59.684Z,19.14
2024-05-09T12:32:59.751Z,19.12
2024-05-09T12:33:59.680Z,19.00
2024-05-09T12:34:59.626Z,19.07
2024-05-09T12:35:59.847Z,18.96
2024-05-09T12:36:59.545Z,18.93
2024-05-09T12:37:59.496Z,18.96
2024-05-09T12:38:59.487Z,18.98
2024-05-09T12:39:59.455Z,19.02
2024-05-09T12:40:59.786Z,18.98
2024-05-09T12:41:59.397Z,18.96
2024-05-09T12:42:59.353Z,19.09
2024-05-09T12:43:59.306Z,19.14
2024-05-09T12:44:59.554Z,19.15
2024-05-09T12:45:59.332Z,19.15
2024-05-09T12:46:59.221Z,19.07
2024-05-09T12:47:59.488Z,19.11
2024-05-09T12:48:59.353Z,19.14
2024-05-09T12:49:59.405Z,19.14
2024-05-09T12:50:59.128Z,19.07
2024-05-09T12:51:59.100Z,19.15
2024-05-09T12:52:59.044Z,19.26
2024-05-09T12:53:59.011Z,19.30
2024-05-09T12:54:59.323Z,19.33
2024-05-09T12:56:02.267Z,19.41
2024-05-09T12:56:58.922Z,19.39
2024-05-09T12:57:58.973Z,19.44
2024-05-09T12:58:58.873Z,19.40
2024-05-09T12:59:59.108Z,19.47
2024-05-09T13:00:58.923Z,19.33
2024-05-09T13:02:01.133Z,19.34
2024-05-09T13:02:58.818Z,19.37